FDA224 RJCO-RJAF
Flight info
| Callsign | FDA224 |
|---|---|
| Flight time | 1h 13m |
| Altitude | 30000 |
| Route | MOIWA V2 HWE Y14 ARIKA Y12 GTC Y312 AZUMI V57 MBE |
| Aircraft | E75L/M-SDE3GILORVW/S |
Departure
| Time | 2026-04-24 05:35 |
|---|---|
| Airport | Sapporo Okadama Airport (RJCO) |
Arrival
| Time | 2026-04-24 06:48 |
|---|---|
| Airport | Shinshu-Matsumoto Airport (RJAF) |
| Time | Latitude | Longitude | Altitude | Speed | Heading |
|---|---|---|---|---|---|
| 2026-04-24 05:35 | 43.06153 | 141.26197 | 6019 ft | 287 kts | 192° |
| 2026-04-24 05:35 | 43.04203 | 141.25755 | 6669 ft | 287 kts | 191° |
| 2026-04-24 05:35 | 43.02224 | 141.25165 | 7184 ft | 292 kts | 196° |
| 2026-04-24 05:35 | 43.00264 | 141.24458 | 7795 ft | 293 kts | 197° |
| 2026-04-24 05:36 | 42.98290 | 141.23760 | 8353 ft | 296 kts | 196° |
| 2026-04-24 05:36 | 42.96295 | 141.23074 | 8913 ft | 297 kts | 195° |
| 2026-04-24 05:36 | 42.94291 | 141.22390 | 9505 ft | 302 kts | 195° |
| 2026-04-24 05:36 | 42.92250 | 141.21699 | 10244 ft | 304 kts | 196° |
| 2026-04-24 05:37 | 42.90129 | 141.20983 | 10537 ft | 322 kts | 196° |
| 2026-04-24 05:37 | 42.87947 | 141.20240 | 11057 ft | 330 kts | 196° |
| 2026-04-24 05:37 | 42.85696 | 141.19481 | 11679 ft | 334 kts | 197° |
| 2026-04-24 05:37 | 42.83420 | 141.18721 | 12443 ft | 337 kts | 197° |
| 2026-04-24 05:38 | 42.81125 | 141.17965 | 13172 ft | 341 kts | 198° |
| 2026-04-24 05:38 | 42.78806 | 141.17178 | 13925 ft | 346 kts | 198° |
| 2026-04-24 05:38 | 42.76453 | 141.16382 | 14639 ft | 349 kts | 199° |
| 2026-04-24 05:38 | 42.74080 | 141.15577 | 15331 ft | 353 kts | 200° |
| 2026-04-24 05:39 | 42.71685 | 141.14752 | 16090 ft | 357 kts | 200° |
| 2026-04-24 05:39 | 42.69282 | 141.13948 | 16807 ft | 361 kts | 201° |
| 2026-04-24 05:39 | 42.66818 | 141.13130 | 17567 ft | 366 kts | 202° |
| 2026-04-24 05:39 | 42.64324 | 141.12294 | 18365 ft | 370 kts | 202° |
| 2026-04-24 05:40 | 42.61810 | 141.11453 | 19075 ft | 373 kts | 203° |
| 2026-04-24 05:40 | 42.59318 | 141.10620 | 19852 ft | 374 kts | 204° |
| 2026-04-24 05:40 | 42.56783 | 141.09768 | 20558 ft | 375 kts | 204° |
| 2026-04-24 05:40 | 42.54241 | 141.08921 | 21260 ft | 377 kts | 204° |
| 2026-04-24 05:41 | 42.51686 | 141.08035 | 21874 ft | 379 kts | 206° |
| 2026-04-24 05:41 | 42.49129 | 141.07106 | 22504 ft | 382 kts | 206° |
| 2026-04-24 05:41 | 42.46521 | 141.06247 | 23125 ft | 387 kts | 205° |
| 2026-04-24 05:41 | 42.43905 | 141.05402 | 23849 ft | 388 kts | 205° |
| 2026-04-24 05:42 | 42.41267 | 141.04564 | 24502 ft | 388 kts | 204° |
| 2026-04-24 05:42 | 42.38630 | 141.03752 | 25136 ft | 391 kts | 205° |
| 2026-04-24 05:42 | 42.35968 | 141.02887 | 25678 ft | 394 kts | 205° |
| 2026-04-24 05:42 | 42.33324 | 141.02025 | 26243 ft | 396 kts | 205° |
| 2026-04-24 05:43 | 42.30655 | 141.01110 | 26862 ft | 395 kts | 206° |
| 2026-04-24 05:43 | 42.27987 | 141.00178 | 27406 ft | 397 kts | 206° |
| 2026-04-24 05:43 | 42.25299 | 140.99246 | 27925 ft | 400 kts | 206° |
| 2026-04-24 05:43 | 42.22598 | 140.98302 | 28401 ft | 402 kts | 206° |
| 2026-04-24 05:44 | 42.19876 | 140.97356 | 28909 ft | 405 kts | 206° |
| 2026-04-24 05:44 | 42.17142 | 140.96408 | 29359 ft | 407 kts | 206° |
| 2026-04-24 05:44 | 42.14376 | 140.95476 | 29803 ft | 410 kts | 206° |
| 2026-04-24 05:44 | 42.11590 | 140.94548 | 30079 ft | 417 kts | 206° |
| 2026-04-24 05:45 | 42.08729 | 140.93587 | 30085 ft | 430 kts | 205° |
| 2026-04-24 05:45 | 42.05827 | 140.92618 | 30093 ft | 441 kts | 205° |
| 2026-04-24 05:45 | 42.02811 | 140.91612 | 29984 ft | 450 kts | 205° |
| 2026-04-24 05:45 | 41.99762 | 140.90609 | 29951 ft | 450 kts | 204° |
| 2026-04-24 05:46 | 41.93643 | 140.88584 | 29929 ft | 453 kts | 205° |
| 2026-04-24 05:46 | 41.87502 | 140.86536 | 29951 ft | 455 kts | 204° |
| 2026-04-24 05:47 | 41.81358 | 140.84521 | 29939 ft | 451 kts | 204° |
| 2026-04-24 05:47 | 41.75546 | 140.81927 | 29990 ft | 435 kts | 216° |
| 2026-04-24 05:48 | 41.70184 | 140.78235 | 29936 ft | 433 kts | 217° |
| 2026-04-24 05:48 | 41.64837 | 140.74533 | 29949 ft | 433 kts | 217° |
| 2026-04-24 05:49 | 41.60385 | 140.71453 | 30051 ft | 433 kts | 217° |
| 2026-04-24 05:49 | 41.57704 | 140.69611 | 30223 ft | 433 kts | 217° |
| 2026-04-24 05:49 | 41.55018 | 140.67756 | 30153 ft | 434 kts | 217° |
| 2026-04-24 05:50 | 41.49642 | 140.64080 | 30174 ft | 434 kts | 217° |
| 2026-04-24 05:50 | 41.44299 | 140.60424 | 30013 ft | 432 kts | 217° |
| 2026-04-24 05:51 | 41.38943 | 140.56747 | 30116 ft | 433 kts | 217° |
| 2026-04-24 05:51 | 41.33558 | 140.53066 | 30084 ft | 434 kts | 217° |
| 2026-04-24 05:52 | 41.28174 | 140.49394 | 30088 ft | 434 kts | 217° |
| 2026-04-24 05:52 | 41.22791 | 140.45730 | 30083 ft | 434 kts | 217° |
| 2026-04-24 05:53 | 41.17440 | 140.42094 | 30092 ft | 434 kts | 217° |
| 2026-04-24 05:53 | 41.12047 | 140.38459 | 30099 ft | 435 kts | 216° |
| 2026-04-24 05:54 | 41.06670 | 140.34817 | 30090 ft | 434 kts | 217° |
| 2026-04-24 05:54 | 41.01284 | 140.31163 | 30098 ft | 436 kts | 216° |
| 2026-04-24 05:55 | 40.95882 | 140.27517 | 30102 ft | 435 kts | 216° |
| 2026-04-24 05:55 | 40.90526 | 140.23911 | 30105 ft | 434 kts | 216° |
| 2026-04-24 05:56 | 40.85137 | 140.20289 | 30071 ft | 434 kts | 216° |
| 2026-04-24 05:56 | 40.79745 | 140.16673 | 30104 ft | 435 kts | 216° |
| 2026-04-24 05:57 | 40.74375 | 140.13078 | 30107 ft | 435 kts | 216° |
| 2026-04-24 05:57 | 40.68992 | 140.09458 | 30094 ft | 435 kts | 216° |
| 2026-04-24 05:58 | 40.63571 | 140.05847 | 30096 ft | 436 kts | 215° |
| 2026-04-24 05:58 | 40.58170 | 140.02231 | 30085 ft | 436 kts | 215° |
| 2026-04-24 05:59 | 40.52782 | 139.98688 | 30123 ft | 434 kts | 215° |
| 2026-04-24 05:59 | 40.47379 | 139.95113 | 30105 ft | 433 kts | 214° |
| 2026-04-24 06:00 | 40.41712 | 139.92156 | 30133 ft | 446 kts | 204° |
| 2026-04-24 06:00 | 40.35721 | 139.90072 | 30087 ft | 447 kts | 203° |
| 2026-04-24 06:01 | 40.29708 | 139.88033 | 30097 ft | 446 kts | 202° |
| 2026-04-24 06:01 | 40.23718 | 139.86019 | 30103 ft | 443 kts | 204° |
| 2026-04-24 06:02 | 40.17750 | 139.83874 | 30093 ft | 444 kts | 203° |
| 2026-04-24 06:02 | 40.11807 | 139.81796 | 30083 ft | 444 kts | 203° |
| 2026-04-24 06:03 | 40.05845 | 139.79733 | 30103 ft | 443 kts | 203° |
| 2026-04-24 06:03 | 39.99874 | 139.77673 | 30101 ft | 443 kts | 203° |
| 2026-04-24 06:04 | 39.93937 | 139.75686 | 30102 ft | 443 kts | 202° |
| 2026-04-24 06:04 | 39.87953 | 139.73694 | 30087 ft | 443 kts | 202° |
| 2026-04-24 06:05 | 39.81991 | 139.71711 | 30096 ft | 442 kts | 202° |
| 2026-04-24 06:05 | 39.76041 | 139.69741 | 30101 ft | 441 kts | 202° |
| 2026-04-24 06:06 | 39.70073 | 139.67764 | 30093 ft | 442 kts | 202° |
| 2026-04-24 06:06 | 39.64150 | 139.65803 | 30095 ft | 443 kts | 202° |
| 2026-04-24 06:07 | 39.58194 | 139.63838 | 30105 ft | 439 kts | 202° |
| 2026-04-24 06:07 | 39.52305 | 139.61895 | 30119 ft | 439 kts | 202° |
| 2026-04-24 06:08 | 39.46383 | 139.59948 | 30086 ft | 436 kts | 202° |
| 2026-04-24 06:08 | 39.40484 | 139.58008 | 30103 ft | 437 kts | 202° |
| 2026-04-24 06:09 | 39.34592 | 139.56075 | 30105 ft | 437 kts | 202° |
| 2026-04-24 06:09 | 39.28679 | 139.54139 | 30103 ft | 437 kts | 202° |
| 2026-04-24 06:10 | 39.22814 | 139.52222 | 30107 ft | 437 kts | 202° |
| 2026-04-24 06:11 | 39.13974 | 139.49342 | 30108 ft | 433 kts | 203° |
| 2026-04-24 06:11 | 39.08130 | 139.47438 | 30111 ft | 433 kts | 202° |
| 2026-04-24 06:12 | 39.02281 | 139.45536 | 30103 ft | 433 kts | 202° |
| 2026-04-24 06:12 | 38.96473 | 139.43652 | 30094 ft | 433 kts | 202° |
| 2026-04-24 06:13 | 38.90641 | 139.41765 | 30108 ft | 430 kts | 203° |
| 2026-04-24 06:13 | 38.84843 | 139.39891 | 30108 ft | 429 kts | 203° |
| 2026-04-24 06:14 | 38.79082 | 139.38031 | 30107 ft | 429 kts | 203° |
| 2026-04-24 06:14 | 38.73286 | 139.36163 | 30104 ft | 429 kts | 203° |
| 2026-04-24 06:15 | 38.67499 | 139.34304 | 30109 ft | 426 kts | 203° |
| 2026-04-24 06:15 | 38.61745 | 139.32455 | 30091 ft | 426 kts | 203° |
| 2026-04-24 06:16 | 38.55991 | 139.30611 | 30107 ft | 426 kts | 203° |
| 2026-04-24 06:16 | 38.50235 | 139.28770 | 30103 ft | 426 kts | 203° |
| 2026-04-24 06:17 | 38.44529 | 139.26944 | 30110 ft | 423 kts | 203° |
| 2026-04-24 06:17 | 38.38815 | 139.25122 | 30102 ft | 423 kts | 203° |
| 2026-04-24 06:18 | 38.33090 | 139.23298 | 30101 ft | 423 kts | 203° |
| 2026-04-24 06:18 | 38.27412 | 139.21493 | 30097 ft | 423 kts | 203° |
| 2026-04-24 06:19 | 38.21710 | 139.19685 | 30104 ft | 421 kts | 203° |
| 2026-04-24 06:19 | 38.16012 | 139.17878 | 30098 ft | 421 kts | 203° |
| 2026-04-24 06:20 | 38.10325 | 139.16078 | 30106 ft | 421 kts | 203° |
| 2026-04-24 06:20 | 38.04667 | 139.14291 | 30097 ft | 421 kts | 203° |
| 2026-04-24 06:21 | 37.98991 | 139.12502 | 30101 ft | 419 kts | 203° |
| 2026-04-24 06:21 | 37.96240 | 139.11414 | 30128 ft | 407 kts | 213° |
| 2026-04-24 06:21 | 37.93842 | 139.09616 | 30130 ft | 399 kts | 220° |
| 2026-04-24 06:22 | 37.89154 | 139.05824 | 30105 ft | 399 kts | 220° |
| 2026-04-24 06:22 | 37.84487 | 139.02010 | 30100 ft | 399 kts | 220° |
| 2026-04-24 06:23 | 37.79863 | 138.98207 | 30100 ft | 399 kts | 220° |
| 2026-04-24 06:23 | 37.75208 | 138.94379 | 30089 ft | 397 kts | 220° |
| 2026-04-24 06:24 | 37.70577 | 138.90572 | 30101 ft | 397 kts | 220° |
| 2026-04-24 06:24 | 37.65937 | 138.86761 | 30094 ft | 397 kts | 220° |
| 2026-04-24 06:25 | 37.61335 | 138.82988 | 30095 ft | 397 kts | 220° |
| 2026-04-24 06:25 | 37.56690 | 138.79186 | 30096 ft | 397 kts | 220° |
| 2026-04-24 06:26 | 37.52045 | 138.75392 | 30088 ft | 398 kts | 220° |
| 2026-04-24 06:26 | 37.47396 | 138.71594 | 30093 ft | 395 kts | 220° |
| 2026-04-24 06:27 | 37.42864 | 138.67934 | 30057 ft | 374 kts | 220° |
| 2026-04-24 06:27 | 37.40741 | 138.66208 | 30011 ft | 353 kts | 221° |
| 2026-04-24 06:27 | 37.38734 | 138.64573 | 30032 ft | 333 kts | 221° |
| 2026-04-24 06:27 | 37.36837 | 138.63009 | 30117 ft | 321 kts | 222° |
| 2026-04-24 06:28 | 37.34962 | 138.61445 | 29314 ft | 329 kts | 222° |
| 2026-04-24 06:28 | 37.33027 | 138.59830 | 28091 ft | 339 kts | 221° |
| 2026-04-24 06:28 | 37.31034 | 138.58180 | 27096 ft | 344 kts | 220° |
| 2026-04-24 06:28 | 37.29092 | 138.56590 | 26746 ft | 332 kts | 220° |
| 2026-04-24 06:29 | 37.27154 | 138.54994 | 26321 ft | 336 kts | 220° |
| 2026-04-24 06:29 | 37.25160 | 138.53354 | 25811 ft | 349 kts | 219° |
| 2026-04-24 06:29 | 37.23106 | 138.51679 | 25135 ft | 352 kts | 219° |
| 2026-04-24 06:29 | 37.21073 | 138.50009 | 24693 ft | 349 kts | 219° |
| 2026-04-24 06:30 | 37.19047 | 138.48334 | 24284 ft | 350 kts | 219° |
| 2026-04-24 06:30 | 37.16997 | 138.46660 | 23797 ft | 351 kts | 219° |
| 2026-04-24 06:30 | 37.14950 | 138.44992 | 23320 ft | 350 kts | 218° |
| 2026-04-24 06:30 | 37.12913 | 138.43333 | 22867 ft | 348 kts | 218° |
| 2026-04-24 06:31 | 37.10866 | 138.41674 | 22474 ft | 356 kts | 218° |
| 2026-04-24 06:31 | 37.08786 | 138.39974 | 21948 ft | 357 kts | 218° |
| 2026-04-24 06:31 | 37.06715 | 138.38287 | 21487 ft | 355 kts | 218° |
| 2026-04-24 06:31 | 37.04650 | 138.36606 | 21010 ft | 354 kts | 218° |
| 2026-04-24 06:32 | 37.02617 | 138.34950 | 20569 ft | 354 kts | 217° |
| 2026-04-24 06:32 | 37.00552 | 138.33271 | 20103 ft | 353 kts | 217° |
| 2026-04-24 06:32 | 36.98482 | 138.31587 | 19627 ft | 354 kts | 217° |
| 2026-04-24 06:32 | 36.96416 | 138.29908 | 19167 ft | 354 kts | 217° |
| 2026-04-24 06:33 | 36.94344 | 138.28237 | 18705 ft | 354 kts | 217° |
| 2026-04-24 06:33 | 36.92281 | 138.26559 | 18214 ft | 354 kts | 217° |
| 2026-04-24 06:33 | 36.90216 | 138.24883 | 17778 ft | 352 kts | 217° |
| 2026-04-24 06:33 | 36.88187 | 138.23235 | 17315 ft | 352 kts | 216° |
| 2026-04-24 06:34 | 36.86138 | 138.21575 | 16850 ft | 350 kts | 217° |
| 2026-04-24 06:34 | 36.84095 | 138.19922 | 16395 ft | 347 kts | 216° |
| 2026-04-24 06:34 | 36.82075 | 138.18287 | 15942 ft | 345 kts | 216° |
| 2026-04-24 06:34 | 36.80064 | 138.16661 | 15486 ft | 344 kts | 216° |
| 2026-04-24 06:35 | 36.78061 | 138.15043 | 15040 ft | 341 kts | 216° |
| 2026-04-24 06:35 | 36.76072 | 138.13439 | 14579 ft | 340 kts | 216° |
| 2026-04-24 06:35 | 36.74325 | 138.12031 | 14167 ft | 338 kts | 216° |
| 2026-04-24 06:35 | 36.72351 | 138.10439 | 13770 ft | 336 kts | 216° |
| 2026-04-24 06:36 | 36.70390 | 138.08858 | 13294 ft | 335 kts | 216° |
| 2026-04-24 06:36 | 36.68432 | 138.07294 | 12853 ft | 333 kts | 215° |
| 2026-04-24 06:36 | 36.66482 | 138.05736 | 12445 ft | 332 kts | 216° |
| 2026-04-24 06:36 | 36.64569 | 138.04186 | 12052 ft | 330 kts | 216° |
| 2026-04-24 06:37 | 36.62654 | 138.02641 | 11843 ft | 330 kts | 208° |
| 2026-04-24 06:37 | 36.60389 | 138.02025 | 11533 ft | 340 kts | 180° |
| 2026-04-24 06:37 | 36.58840 | 138.02351 | 11459 ft | 341 kts | 167° |
| 2026-04-24 06:37 | 36.56550 | 138.03143 | 11199 ft | 342 kts | 167° |
| 2026-04-24 06:38 | 36.54240 | 138.03829 | 10968 ft | 340 kts | 169° |
| 2026-04-24 06:38 | 36.51913 | 138.04415 | 10745 ft | 340 kts | 171° |
| 2026-04-24 06:38 | 36.49592 | 138.04960 | 10533 ft | 340 kts | 171° |
| 2026-04-24 06:38 | 36.47272 | 138.05480 | 10280 ft | 337 kts | 171° |
| 2026-04-24 06:39 | 36.44959 | 138.05977 | 10103 ft | 335 kts | 171° |
| 2026-04-24 06:39 | 36.42664 | 138.06472 | 9850 ft | 331 kts | 170° |
| 2026-04-24 06:39 | 36.40403 | 138.06966 | 9645 ft | 327 kts | 170° |
| 2026-04-24 06:39 | 36.38196 | 138.07445 | 9435 ft | 316 kts | 170° |
| 2026-04-24 06:40 | 36.36497 | 138.07801 | 9284 ft | 309 kts | 171° |
| 2026-04-24 06:40 | 36.34399 | 138.08246 | 9085 ft | 301 kts | 170° |
| 2026-04-24 06:40 | 36.32389 | 138.08674 | 8858 ft | 284 kts | 170° |
| 2026-04-24 06:40 | 36.30495 | 138.09075 | 8678 ft | 270 kts | 170° |
| 2026-04-24 06:41 | 36.28684 | 138.09465 | 8456 ft | 259 kts | 170° |
| 2026-04-24 06:41 | 36.26954 | 138.09871 | 8438 ft | 249 kts | 169° |
| 2026-04-24 06:41 | 36.25263 | 138.10236 | 8523 ft | 246 kts | 171° |
| 2026-04-24 06:41 | 36.23535 | 138.10575 | 8225 ft | 258 kts | 170° |
| 2026-04-24 06:42 | 36.21839 | 138.10948 | 8212 ft | 238 kts | 169° |
| 2026-04-24 06:42 | 36.20219 | 138.11315 | 7902 ft | 234 kts | 168° |
| 2026-04-24 06:42 | 36.18662 | 138.11640 | 7643 ft | 216 kts | 171° |
| 2026-04-24 06:42 | 36.17232 | 138.11762 | 7383 ft | 203 kts | 181° |
| 2026-04-24 06:43 | 36.15860 | 138.11565 | 7059 ft | 195 kts | 192° |
| 2026-04-24 06:43 | 36.14567 | 138.11101 | 6809 ft | 195 kts | 201° |
| 2026-04-24 06:43 | 36.13323 | 138.10400 | 6592 ft | 197 kts | 209° |
| 2026-04-24 06:43 | 36.12192 | 138.09448 | 6300 ft | 197 kts | 220° |
| 2026-04-24 06:44 | 36.11214 | 138.08262 | 5968 ft | 197 kts | 231° |
| 2026-04-24 06:44 | 36.10423 | 138.06895 | 5638 ft | 192 kts | 242° |
| 2026-04-24 06:44 | 36.09846 | 138.05430 | 5455 ft | 189 kts | 251° |
| 2026-04-24 06:44 | 36.09449 | 138.03883 | 5156 ft | 190 kts | 259° |
| 2026-04-24 06:45 | 36.09272 | 138.02294 | 4806 ft | 181 kts | 269° |
| 2026-04-24 06:45 | 36.09303 | 138.00815 | 4639 ft | 163 kts | 277° |
| 2026-04-24 06:45 | 36.09472 | 137.99452 | 4326 ft | 158 kts | 286° |
| 2026-04-24 06:45 | 36.09773 | 137.98160 | 4092 ft | 154 kts | 293° |
| 2026-04-24 06:46 | 36.10121 | 137.96903 | 3813 ft | 155 kts | 292° |
| 2026-04-24 06:46 | 36.10472 | 137.95657 | 3489 ft | 151 kts | 295° |
| 2026-04-24 06:46 | 36.10971 | 137.94584 | 3315 ft | 143 kts | 312° |
| 2026-04-24 06:46 | 36.11681 | 137.93734 | 3167 ft | 142 kts | 326° |
| 2026-04-24 06:47 | 36.12552 | 137.93160 | 2984 ft | 145 kts | 341° |
| 2026-04-24 06:47 | 36.13525 | 137.92861 | 2727 ft | 142 kts | 353° |
| 2026-04-24 06:47 | 36.14473 | 137.92700 | 2492 ft | 136 kts | 351° |
| 2026-04-24 06:47 | 36.15418 | 137.92513 | 2308 ft | 138 kts | 352° |
| 2026-04-24 06:48 | 36.16334 | 137.92330 | 2169 ft | 120 kts | 351° |
| 2026-04-24 06:48 | 36.17006 | 137.92200 | 2153 ft | 62 kts | 352° |
| 2026-04-24 06:48 | 36.17206 | 137.92160 | 2148 ft | 8 kts | 332° |
| 2026-04-24 06:48 | 36.17234 | 137.92148 | 2147 ft | 2 kts | 44° |
| 2026-04-24 06:49 | 36.17229 | 137.92167 | 2146 ft | 3 kts | 159° |
| 2026-04-24 06:49 | 36.17159 | 137.92176 | 2148 ft | 28 kts | 172° |
| 2026-04-24 06:49 | 36.16949 | 137.92211 | 2152 ft | 30 kts | 172° |
| 2026-04-24 06:49 | 36.16747 | 137.92250 | 2155 ft | 29 kts | 169° |
| 2026-04-24 06:50 | 36.16555 | 137.92292 | 2164 ft | 28 kts | 170° |
| 2026-04-24 06:50 | 36.16427 | 137.92324 | 2170 ft | 8 kts | 130° |
| 2026-04-24 06:50 | 36.16422 | 137.92413 | 2166 ft | 13 kts | 85° |
| 2026-04-24 06:50 | 36.16436 | 137.92534 | 2168 ft | 13 kts | 78° |
| 2026-04-24 06:51 | 36.16441 | 137.92569 | 2162 ft | 0 kts | 81° |